Beatrice, NE

12:18 AM CST on December 08, 2019 (GMT -0600)
Beatrice Municipal

Weather History for KBIE - October, 2019

Change the Weather History Date:

Tuesday, October 8, 2019

  Actual Average Record
Temperature  
Mean Temperature 60 °F -  
Max Temperature 73 °F 72 °F 89 °F (1949)
Min Temperature 48 °F 46 °F 17 °F (2000)
Degree Days  
Heating Degree Days 4    
Growing Degree Days 10 (Base 50)    
Moisture  
Dew Point 46 °F    
Average Humidity 60    
Maximum Humidity 84    
Minimum Humidity 38    
Precipitation  
Precipitation 0.00 in - - ()
Sea Level Pressure  
Sea Level Pressure 30.00 in    
Wind  
Wind Speed 11 mph (SSE)    
Max Wind Speed 22 mph    
Max Gust Speed 29 mph    
Visibility 10 miles    
Events      
Averages and records for this station are not official NWS values.
T = Trace of Precipitation, MM = Missing Value Source: NWS Daily Summary

Daily Weather History Graph

Daily Weather History Graph

Search for Another Location

Airport or City:

Astronomy

Oct. 08, 2019 Rise Set
Actual Time 7:30 AM CDT 6:58 PM CDT
Civil Twilight 7:03 AM CDT 7:25 PM CDT
Nautical Twilight 6:31 AM CDT 7:56 PM CDT
Astronomical Twilight 5:59 AM CDT 8:28 PM CDT
Moon 4:58 PM CDT 2:19 AM CDT
Length of Visible Light 12h 22m
Length of Day
11h 27m
Waxing Gibbous, 78% of the Moon is Illuminated
Oct 8
Waxing Gibbous
Oct 13
Full
Oct 21
Last Quarter
Oct 27
New
Nov 4
First Quarter

Hourly Weather History & Observations

Time (CDT) Temp. Dew Point Humidity Pressure Visibility Wind Dir Wind Speed Gust Speed Precip Events Conditions
12:15 AM 51.6 °F 43.0 °F 72% 30.13 in 10.0 mi South 5.8 mph - N/A   Clear
12:35 AM 52.3 °F 43.2 °F 71% 30.12 in 10.0 mi South 6.9 mph - N/A   Clear
12:55 AM 52.9 °F 43.3 °F 70% 30.12 in 10.0 mi South 8.1 mph - N/A   Clear
1:15 AM 52.9 °F 43.5 °F 71% 30.11 in 10.0 mi South 8.1 mph - N/A   Clear
1:35 AM 52.0 °F 43.5 °F 73% 30.11 in 10.0 mi South 8.1 mph - N/A   Clear
1:55 AM 51.4 °F 43.5 °F 74% 30.11 in 10.0 mi SSE 6.9 mph - N/A   Clear
2:15 AM 51.3 °F 43.7 °F 75% 30.11 in 10.0 mi South 9.2 mph - N/A   Clear
2:35 AM 51.1 °F 43.7 °F 76% 30.11 in 10.0 mi South 6.9 mph - N/A   Clear
2:55 AM 51.3 °F 43.9 °F 76% 30.10 in 10.0 mi South 8.1 mph - N/A   Clear
3:15 AM 50.2 °F 44.1 °F 79% 30.10 in 10.0 mi South 6.9 mph - N/A   Clear
3:35 AM 50.5 °F 44.1 °F 78% 30.10 in 10.0 mi SSE 9.2 mph - N/A   Clear
3:55 AM 50.7 °F 43.7 °F 77% 30.09 in 10.0 mi SSE 9.2 mph - N/A   Clear
4:15 AM 51.3 °F 43.7 °F 75% 30.09 in 10.0 mi South 8.1 mph - N/A   Clear
4:35 AM 51.1 °F 43.7 °F 76% 30.09 in 10.0 mi South 9.2 mph - N/A   Clear
4:55 AM 51.1 °F 43.2 °F 74% 30.09 in 10.0 mi South 9.2 mph - N/A   Clear
5:15 AM 51.1 °F 43.2 °F 74% 30.09 in 10.0 mi South 10.4 mph - N/A   Clear
5:35 AM 51.1 °F 43.0 °F 74% 30.09 in 10.0 mi South 11.5 mph - N/A   Clear
5:50 AM 51.1 °F 42.8 °F 73% 30.08 in 10.0 mi South 10.4 mph - N/A   Clear
6:15 AM 51.4 °F 42.8 °F 72% 30.08 in 10.0 mi South 11.5 mph - N/A   Clear
6:35 AM 51.8 °F 43.0 °F 72% 30.08 in 10.0 mi South 11.5 mph 16.1 mph N/A   Clear
6:50 AM 50.9 °F 43.3 °F 75% 30.08 in 10.0 mi SSE 9.2 mph - N/A   Clear
7:15 AM 49.3 °F 43.9 °F 82% 30.08 in 10.0 mi SSE 9.2 mph - N/A   Clear
7:35 AM 48.6 °F 43.9 °F 84% 30.08 in 10.0 mi SSE 8.1 mph - N/A   Clear
7:55 AM 50.0 °F 44.1 °F 80% 30.07 in 10.0 mi South 9.2 mph - N/A   Clear
8:15 AM 50.9 °F 44.6 °F 79% 30.07 in 10.0 mi SSE 10.4 mph - N/A   Clear
8:35 AM 52.3 °F 44.8 °F 75% 30.07 in 10.0 mi South 11.5 mph - N/A   Clear
8:55 AM 54.5 °F 45.1 °F 71% 30.06 in 10.0 mi South 12.7 mph - N/A   Clear
9:15 AM 56.1 °F 45.5 °F 68% 30.06 in 10.0 mi South 13.8 mph - N/A   Clear
9:35 AM 57.9 °F 45.5 °F 63% 30.05 in 10.0 mi South 13.8 mph 18.4 mph N/A   Clear
9:55 AM 59.7 °F 45.3 °F 59% 30.06 in 10.0 mi South 15.0 mph - N/A   Clear
10:15 AM 61.3 °F 45.9 °F 57% 30.05 in 10.0 mi South 16.1 mph 20.7 mph N/A   Clear
10:35 AM 63.0 °F 46.6 °F 55% 30.05 in 10.0 mi South 12.7 mph - N/A   Clear
10:55 AM 65.3 °F 44.8 °F 47% 30.04 in 10.0 mi South 17.3 mph 25.3 mph N/A   Clear
11:15 AM 66.2 °F 44.1 °F 45% 30.04 in 10.0 mi South 17.3 mph 25.3 mph N/A   Clear
11:35 AM 66.9 °F 44.6 °F 45% 30.03 in 10.0 mi South 20.7 mph 26.5 mph N/A   Clear
11:55 AM 68.0 °F 45.0 °F 43% 30.02 in 10.0 mi South 21.9 mph 27.6 mph N/A   Clear
12:15 PM 68.5 °F 45.3 °F 43% 30.01 in 10.0 mi SSW 17.3 mph 25.3 mph N/A   Clear
12:35 PM 68.9 °F 44.4 °F 41% 30.01 in 10.0 mi South 17.3 mph 25.3 mph N/A   Clear
12:55 PM 70.3 °F 46.4 °F 42% 30.00 in 10.0 mi South 13.8 mph 25.3 mph N/A   Clear
1:15 PM 70.5 °F 45.7 °F 41% 29.98 in 10.0 mi South 16.1 mph 26.5 mph N/A   Clear
1:35 PM 71.6 °F 45.7 °F 39% 29.97 in 10.0 mi South 17.3 mph 21.9 mph N/A   Clear
1:55 PM 72.0 °F 45.3 °F 38% 29.97 in 10.0 mi South 18.4 mph 26.5 mph N/A   Clear
2:15 PM 72.5 °F 45.9 °F 39% 29.95 in 10.0 mi South 18.4 mph 24.2 mph N/A   Clear
2:35 PM 72.5 °F 46.6 °F 40% 29.94 in 10.0 mi SSE 17.3 mph 25.3 mph N/A   Clear
2:55 PM 73.2 °F 48.0 °F 41% 29.93 in 10.0 mi SSE 17.3 mph 20.7 mph N/A   Clear
3:15 PM 73.0 °F 46.9 °F 39% 29.92 in 10.0 mi South 19.6 mph - N/A   Clear
3:35 PM 73.4 °F 47.5 °F 40% 29.91 in 10.0 mi SSE 18.4 mph 28.8 mph N/A   Clear
3:55 PM 73.4 °F 47.1 °F 39% 29.91 in 10.0 mi South 20.7 mph 27.6 mph N/A   Clear
4:15 PM 73.2 °F 47.5 °F 40% 29.90 in 10.0 mi SSE 17.3 mph 26.5 mph N/A   Clear
4:35 PM 73.0 °F 47.5 °F 40% 29.90 in 10.0 mi South 18.4 mph 26.5 mph N/A   Clear
4:55 PM 72.7 °F 47.7 °F 41% 29.90 in 10.0 mi SSE 17.3 mph 21.9 mph N/A   Clear
5:15 PM 72.5 °F 47.1 °F 40% 29.89 in 10.0 mi South 18.4 mph - N/A   Clear
5:35 PM 72.1 °F 47.5 °F 41% 29.89 in 10.0 mi SSE 18.4 mph 23.0 mph N/A   Clear
5:55 PM 71.6 °F 47.5 °F 42% 29.89 in 10.0 mi SSE 13.8 mph 20.7 mph N/A   Clear
6:15 PM 70.7 °F 47.5 °F 44% 29.89 in 10.0 mi South 16.1 mph 21.9 mph N/A   Clear
6:35 PM 69.1 °F 48.2 °F 47% 29.89 in 10.0 mi SSE 10.4 mph - N/A   Clear
6:55 PM 68.0 °F 48.6 °F 50% 29.90 in 10.0 mi SSE 10.4 mph - N/A   Clear
7:15 PM 66.9 °F 48.2 °F 51% 29.90 in 10.0 mi SSE 9.2 mph 17.3 mph N/A   Clear
7:35 PM 66.2 °F 47.7 °F 51% 29.90 in 10.0 mi SSE 9.2 mph - N/A   Clear
7:55 PM 64.6 °F 48.4 °F 56% 29.91 in 10.0 mi SSE 9.2 mph - N/A   Clear
8:15 PM 63.3 °F 48.6 °F 59% 29.91 in 10.0 mi SSE 8.1 mph - N/A   Clear
8:35 PM 62.4 °F 48.6 °F 60% 29.92 in 10.0 mi SSE 6.9 mph - N/A   Clear
8:55 PM 61.9 °F 48.6 °F 62% 29.93 in 10.0 mi SSE 5.8 mph - N/A   Clear
9:15 PM 61.0 °F 48.9 °F 64% 29.93 in 10.0 mi SSE 6.9 mph - N/A   Clear
9:35 PM 59.9 °F 49.1 °F 67% 29.93 in 10.0 mi SE 5.8 mph - N/A   Clear
9:55 PM 59.5 °F 49.1 °F 68% 29.92 in 10.0 mi SE 6.9 mph - N/A   Clear
10:15 PM 60.1 °F 49.5 °F 68% 29.92 in 10.0 mi SSE 8.1 mph - N/A   Clear
10:35 PM 59.7 °F 50.0 °F 70% 29.92 in 10.0 mi SSE 10.4 mph - N/A   Clear
10:55 PM 59.5 °F 50.9 °F 73% 29.91 in 10.0 mi SSE 11.5 mph - N/A   Clear
11:15 PM 59.7 °F 51.1 °F 73% 29.91 in 10.0 mi SSE 11.5 mph - N/A   Clear
11:35 PM 59.2 °F 51.3 °F 75% 29.90 in 10.0 mi SSE 12.7 mph 16.1 mph N/A   Clear
11:55 PM 59.2 °F 51.4 °F 75% 29.90 in 10.0 mi SSE 13.8 mph - N/A   Clear